createdAt,value
2023-01-02T00:00:49.439Z,64.90
2023-01-02T00:02:52.319Z,64.54
2023-01-02T00:04:56.405Z,64.78
2023-01-02T00:06:59.072Z,64.72
2023-01-02T00:09:02.065Z,65.10
2023-01-02T00:11:04.756Z,64.47
2023-01-02T00:13:07.346Z,64.70
2023-01-02T00:15:10.621Z,64.79
2023-01-02T00:17:13.279Z,64.39
2023-01-02T00:19:15.918Z,64.22
2023-01-02T00:21:19.988Z,63.87
2023-01-02T00:23:22.587Z,64.13
2023-01-02T00:25:25.315Z,63.94
2023-01-02T00:27:28.009Z,64.28
2023-01-02T00:29:31.371Z,64.57
2023-01-02T00:31:34.083Z,64.54
2023-01-02T00:33:37.344Z,64.59
2023-01-02T00:35:40.074Z,64.35
2023-01-02T00:37:44.122Z,64.51
2023-01-02T00:39:46.732Z,64.60
2023-01-02T00:41:49.358Z,64.72
2023-01-02T00:43:52.221Z,64.56
2023-01-02T00:45:55.095Z,64.64
2023-01-02T00:47:57.738Z,64.85
2023-01-02T00:50:00.434Z,65.15
2023-01-02T00:52:03.372Z,64.99
2023-01-02T00:54:07.643Z,64.96
2023-01-02T00:56:10.285Z,64.90
2023-01-02T00:58:13.633Z,64.87
2023-01-02T01:00:23.692Z,64.64
2023-01-02T01:02:26.934Z,63.97
2023-01-02T01:04:29.832Z,63.67
2023-01-02T01:06:33.704Z,63.46
2023-01-02T01:08:36.694Z,63.02
2023-01-02T01:10:40.859Z,63.04
2023-01-02T01:12:43.617Z,62.70
2023-01-02T01:14:46.223Z,63.12
2023-01-02T01:16:48.933Z,62.49
2023-01-02T01:18:56.000Z,62.58
2023-01-02T01:20:58.607Z,62.54
2023-01-02T01:23:01.250Z,62.90
2023-01-02T01:25:04.206Z,62.53
2023-01-02T01:27:08.214Z,62.61
2023-01-02T01:29:10.880Z,62.19
2023-01-02T01:31:15.372Z,62.12
2023-01-02T01:33:17.997Z,62.03
2023-01-02T01:35:20.663Z,61.65
2023-01-02T01:37:23.316Z,61.89
2023-01-02T01:39:25.950Z,62.18
2023-01-02T01:41:28.780Z,62.39
2023-01-02T01:43:41.498Z,62.86
2023-01-02T01:45:45.156Z,62.82
2023-01-02T01:47:50.822Z,63.12
2023-01-02T01:50:05.031Z,63.22
2023-01-02T01:52:12.593Z,63.04
2023-01-02T01:54:18.074Z,63.03
2023-01-02T01:56:20.866Z,63.58
2023-01-02T01:58:27.879Z,63.83
2023-01-02T02:00:32.369Z,63.42
2023-01-02T02:02:35.789Z,62.96
2023-01-02T02:04:38.937Z,63.80
2023-01-02T02:06:41.839Z,63.63
2023-01-02T02:08:51.184Z,63.30
2023-01-02T02:10:54.369Z,63.52
2023-01-02T02:12:57.006Z,64.29
2023-01-02T02:14:59.578Z,63.91
2023-01-02T02:17:10.871Z,64.12
2023-01-02T02:19:42.000Z,64.41
2023-01-02T02:22:12.474Z,64.59
2023-01-02T02:24:37.452Z,64.48
2023-01-02T02:27:00.914Z,64.74
2023-01-02T02:29:48.751Z,64.96
2023-01-02T02:32:00.189Z,64.94
2023-01-02T02:34:11.890Z,65.12
2023-01-02T02:36:22.826Z,64.86
2023-01-02T02:38:37.277Z,65.19
2023-01-02T02:40:54.046Z,65.13
2023-01-02T02:43:06.412Z,64.84
2023-01-02T02:45:18.060Z,64.74
2023-01-02T02:47:31.620Z,65.11
2023-01-02T02:49:46.305Z,64.76
2023-01-02T02:51:54.260Z,64.56
2023-01-02T02:54:01.945Z,64.21
2023-01-02T02:56:08.453Z,64.80
2023-01-02T02:58:13.082Z,64.72
2023-01-02T03:00:18.913Z,64.36
2023-01-02T03:02:23.213Z,64.51
2023-01-02T03:04:26.253Z,64.08
2023-01-02T03:06:50.341Z,64.96
2023-01-02T03:09:07.473Z,65.03
2023-01-02T03:11:11.881Z,64.94
2023-01-02T03:13:19.994Z,64.92
2023-01-02T03:15:29.375Z,65.50
2023-01-02T03:17:48.664Z,64.79
2023-01-02T03:19:58.855Z,63.67
2023-01-02T03:22:04.634Z,64.94
2023-01-02T03:24:11.218Z,64.24
2023-01-02T03:26:16.121Z,63.99
2023-01-02T03:28:23.516Z,63.92
2023-01-02T03:30:26.411Z,63.09
2023-01-02T03:32:32.264Z,62.86
2023-01-02T03:34:40.249Z,62.87
2023-01-02T03:36:45.403Z,62.63
2023-01-02T03:38:56.199Z,62.75
2023-01-02T03:41:07.673Z,62.62
2023-01-02T03:43:15.870Z,62.45
2023-01-02T03:45:23.869Z,63.64
2023-01-02T03:47:33.552Z,63.50
2023-01-02T03:49:42.709Z,64.29
2023-01-02T03:51:45.457Z,63.93
2023-01-02T03:53:50.110Z,64.40
2023-01-02T03:56:08.754Z,64.85
2023-01-02T03:58:18.251Z,64.89
2023-01-02T04:00:22.238Z,64.62
2023-01-02T04:02:32.904Z,65.22
2023-01-02T04:04:45.425Z,65.51
2023-01-02T04:06:56.470Z,65.30
2023-01-02T04:09:05.043Z,65.54
2023-01-02T04:11:09.546Z,65.31
2023-01-02T04:13:17.220Z,65.68
2023-01-02T04:15:23.244Z,65.25
2023-01-02T04:17:29.373Z,65.37
2023-01-02T04:19:36.281Z,65.24
2023-01-02T04:21:42.507Z,65.14
2023-01-02T04:23:49.078Z,65.15
2023-01-02T04:25:57.238Z,65.47
2023-01-02T04:28:03.566Z,65.80
2023-01-02T04:30:07.386Z,65.72
2023-01-02T04:32:16.108Z,65.64
2023-01-02T04:34:20.816Z,65.69
2023-01-02T04:36:23.578Z,66.29
2023-01-02T04:38:27.561Z,66.02
2023-01-02T04:40:31.896Z,66.13
2023-01-02T04:42:34.627Z,66.50
2023-01-02T04:44:37.326Z,66.34
2023-01-02T04:46:40.073Z,66.42
2023-01-02T04:48:42.732Z,66.55
2023-01-02T04:50:46.038Z,66.64
2023-01-02T04:52:48.713Z,66.71
2023-01-02T04:54:52.743Z,67.24
2023-01-02T04:56:55.439Z,67.22
2023-01-02T04:58:58.082Z,67.18
2023-01-02T05:01:00.984Z,66.79
2023-01-02T05:03:04.228Z,67.39
2023-01-02T05:05:08.719Z,67.43
2023-01-02T05:07:11.383Z,67.71
2023-01-02T05:09:15.966Z,67.72
2023-01-02T05:11:23.559Z,67.95
2023-01-02T05:13:26.261Z,68.56
2023-01-02T05:15:29.237Z,68.94
2023-01-02T05:17:35.365Z,68.71
2023-01-02T05:19:37.989Z,69.01
2023-01-02T05:21:58.104Z,68.70
2023-01-02T05:24:02.628Z,69.38
2023-01-02T05:26:11.961Z,69.54
2023-01-02T05:28:15.949Z,69.55
2023-01-02T05:30:18.649Z,69.80
2023-01-02T05:32:21.257Z,69.53
2023-01-02T05:34:23.856Z,69.43
2023-01-02T05:36:27.579Z,69.63
2023-01-02T05:38:32.149Z,68.99
2023-01-02T05:40:34.815Z,68.08
2023-01-02T05:42:37.445Z,67.29
2023-01-02T05:44:41.464Z,67.17
2023-01-02T05:46:44.180Z,66.97
2023-01-02T05:48:47.530Z,67.56
2023-01-02T05:50:50.223Z,66.91
2023-01-02T05:52:54.439Z,67.42
2023-01-02T05:54:57.013Z,67.74
2023-01-02T05:56:59.652Z,67.40
2023-01-02T05:59:02.299Z,67.59
2023-01-02T06:01:07.706Z,67.75
2023-01-02T06:03:10.372Z,68.17
2023-01-02T06:05:13.018Z,68.38
2023-01-02T06:07:15.608Z,68.35
2023-01-02T06:09:18.685Z,68.63
2023-01-02T06:11:21.361Z,68.52
2023-01-02T06:13:23.990Z,68.10
2023-01-02T06:15:26.581Z,67.96
2023-01-02T06:17:30.536Z,68.24
2023-01-02T06:19:33.163Z,68.87
2023-01-02T06:21:35.759Z,69.28
2023-01-02T06:23:38.832Z,69.70
2023-01-02T06:25:41.555Z,69.50
2023-01-02T06:27:44.137Z,69.99
2023-01-02T06:29:46.924Z,69.87
2023-01-02T06:31:51.802Z,70.26
2023-01-02T06:33:57.347Z,69.43
2023-01-02T06:36:01.088Z,69.55
2023-01-02T06:38:03.779Z,69.19
2023-01-02T06:40:07.595Z,69.18
2023-01-02T06:42:10.206Z,69.53
2023-01-02T06:44:14.363Z,69.29
2023-01-02T06:46:18.644Z,68.96
2023-01-02T06:48:21.324Z,69.13
2023-01-02T06:50:31.243Z,69.53
2023-01-02T06:52:37.266Z,69.65
2023-01-02T06:54:39.838Z,70.75
2023-01-02T06:56:42.478Z,70.54
2023-01-02T06:58:45.555Z,70.88
2023-01-02T07:00:48.558Z,70.58
2023-01-02T07:02:51.168Z,70.73
2023-01-02T07:04:53.788Z,69.91
2023-01-02T07:06:57.688Z,70.02
2023-01-02T07:09:00.301Z,70.22
2023-01-02T07:11:11.507Z,69.69
2023-01-02T07:13:14.136Z,69.50
2023-01-02T07:15:16.742Z,69.00
2023-01-02T07:17:19.338Z,68.37
2023-01-02T07:19:21.906Z,68.67
2023-01-02T07:21:24.736Z,67.83
2023-01-02T07:23:28.952Z,67.22
2023-01-02T07:25:31.618Z,66.71
2023-01-02T07:27:34.658Z,65.97
2023-01-02T07:29:37.281Z,65.14
2023-01-02T07:31:40.029Z,64.78
2023-01-02T07:33:43.345Z,65.01
2023-01-02T07:35:46.002Z,63.83
2023-01-02T07:37:48.652Z,64.17
2023-01-02T07:39:52.648Z,62.77
2023-01-02T07:41:56.200Z,62.49
2023-01-02T07:43:58.853Z,62.28
2023-01-02T07:46:05.084Z,61.06
2023-01-02T07:48:07.940Z,61.24
2023-01-02T07:50:10.776Z,61.48
2023-01-02T07:52:13.429Z,60.73
2023-01-02T07:54:16.091Z,60.16
2023-01-02T07:56:20.055Z,60.38
2023-01-02T07:58:22.728Z,60.54
2023-01-02T08:00:25.426Z,60.64
2023-01-02T08:02:28.178Z,60.26
2023-01-02T08:04:30.930Z,60.77
2023-01-02T08:06:34.318Z,61.67
2023-01-02T08:08:37.897Z,61.30
2023-01-02T08:10:40.770Z,61.23
2023-01-02T08:12:44.701Z,61.74
2023-01-02T08:14:47.329Z,62.12
2023-01-02T08:16:50.077Z,62.57
2023-01-02T08:18:55.469Z,62.91
2023-01-02T08:20:58.206Z,63.16
2023-01-02T08:23:00.881Z,63.27
2023-01-02T08:25:03.637Z,63.53
2023-01-02T08:27:06.248Z,63.46
2023-01-02T08:29:10.207Z,63.57
2023-01-02T08:31:15.000Z,63.22
2023-01-02T08:33:17.725Z,63.44
2023-01-02T08:35:34.593Z,63.57
2023-01-02T08:37:42.498Z,63.66
2023-01-02T08:39:48.109Z,63.39
2023-01-02T08:41:50.741Z,62.85
2023-01-02T08:43:53.357Z,63.14
2023-01-02T08:45:57.352Z,63.13
2023-01-02T08:48:00.113Z,63.19
2023-01-02T08:50:02.714Z,63.30
2023-01-02T08:52:05.847Z,62.93
2023-01-02T08:54:08.575Z,62.79
2023-01-02T08:56:22.132Z,62.88
2023-01-02T08:58:24.733Z,62.96
2023-01-02T09:00:27.413Z,62.78
2023-01-02T09:02:31.609Z,62.42
2023-01-02T09:04:34.388Z,62.32
2023-01-02T09:06:37.761Z,61.22
2023-01-02T09:08:40.522Z,61.21
2023-01-02T09:10:43.109Z,61.79
2023-01-02T09:12:45.735Z,60.98
2023-01-02T09:14:48.388Z,61.70
2023-01-02T09:16:52.278Z,61.65
2023-01-02T09:18:59.248Z,61.50
2023-01-02T09:21:01.907Z,61.10
2023-01-02T09:23:04.504Z,61.12
2023-01-02T09:25:08.309Z,60.68
2023-01-02T09:27:11.015Z,59.65
2023-01-02T09:29:14.526Z,59.43
2023-01-02T09:31:18.600Z,60.13
2023-01-02T09:33:21.871Z,59.22
2023-01-02T09:35:25.874Z,58.70
2023-01-02T09:37:28.602Z,58.40
2023-01-02T09:39:32.902Z,57.02
2023-01-02T09:41:38.084Z,57.25
2023-01-02T09:43:45.121Z,58.10
2023-01-02T09:45:48.858Z,58.25
2023-01-02T09:47:52.970Z,58.21
2023-01-02T09:49:58.811Z,58.96
2023-01-02T09:52:02.795Z,59.21
2023-01-02T09:54:08.047Z,59.28
2023-01-02T09:56:22.410Z,58.44
2023-01-02T09:58:34.627Z,58.27
2023-01-02T10:00:38.879Z,57.58
2023-01-02T10:02:51.765Z,56.14
2023-01-02T10:05:10.045Z,56.34
2023-01-02T10:07:21.708Z,55.74
2023-01-02T10:09:33.286Z,55.39
2023-01-02T10:11:51.967Z,55.01
2023-01-02T10:16:31.345Z,54.09
2023-01-02T10:18:39.560Z,53.83
2023-01-02T10:20:45.857Z,52.63
2023-01-02T10:22:52.275Z,53.14
2023-01-02T10:25:02.390Z,52.36
2023-01-02T10:27:06.944Z,51.26
2023-01-02T10:29:17.909Z,51.65
2023-01-02T10:31:25.464Z,52.58
2023-01-02T10:33:36.461Z,51.58
2023-01-02T10:35:42.863Z,51.98
2023-01-02T10:37:45.546Z,51.49
2023-01-02T10:39:51.469Z,51.73
2023-01-02T10:41:57.673Z,51.78
2023-01-02T10:44:03.208Z,52.25
2023-01-02T10:46:06.253Z,51.30
2023-01-02T10:48:10.851Z,51.81
2023-01-02T10:50:19.799Z,51.79
2023-01-02T10:52:28.385Z,52.09
2023-01-02T10:54:30.977Z,51.67
2023-01-02T10:56:37.420Z,51.90
2023-01-02T10:58:45.781Z,51.28
2023-01-02T11:00:50.129Z,51.19
2023-01-02T11:02:55.170Z,50.96
2023-01-02T11:05:02.707Z,51.09
2023-01-02T11:07:05.474Z,51.02
2023-01-02T11:09:19.751Z,51.66
2023-01-02T11:11:24.123Z,51.66
2023-01-02T11:13:43.034Z,50.83
2023-01-02T11:15:50.397Z,50.54
2023-01-02T11:17:53.129Z,49.93
2023-01-02T11:19:57.719Z,50.59
2023-01-02T11:22:00.430Z,50.56
2023-01-02T11:24:06.032Z,51.33
2023-01-02T11:26:20.358Z,51.66
2023-01-02T11:28:26.291Z,51.15
2023-01-02T11:30:36.960Z,51.14
2023-01-02T11:32:41.855Z,51.62
2023-01-02T11:34:57.165Z,51.98
2023-01-02T11:37:15.380Z,52.20
2023-01-02T11:39:23.359Z,52.59
2023-01-02T11:41:44.590Z,53.07
2023-01-02T11:43:54.111Z,52.79
2023-01-02T11:45:58.169Z,52.69
2023-01-02T11:48:04.233Z,52.39
2023-01-02T11:50:07.854Z,51.82
2023-01-02T11:52:14.137Z,51.90
2023-01-02T11:54:23.020Z,52.11
2023-01-02T11:56:31.158Z,51.90
2023-01-02T11:58:43.243Z,52.86
2023-01-02T12:00:49.766Z,53.01
2023-01-02T12:02:55.164Z,52.80
2023-01-02T12:04:58.062Z,52.65
2023-01-02T12:07:29.956Z,52.66
2023-01-02T12:09:43.252Z,52.64
2023-01-02T12:12:02.656Z,52.38
2023-01-02T12:14:15.028Z,52.74
2023-01-02T12:16:30.897Z,52.46
2023-01-02T12:18:49.390Z,51.97
2023-01-02T12:21:00.929Z,51.94
2023-01-02T12:23:29.398Z,52.34
2023-01-02T12:25:43.602Z,52.38
2023-01-02T12:27:55.351Z,52.26
2023-01-02T12:30:05.710Z,52.51
2023-01-02T12:32:33.179Z,52.01
2023-01-02T12:34:52.911Z,51.97
2023-01-02T12:37:11.863Z,51.86
2023-01-02T12:39:40.812Z,51.85
2023-01-02T12:42:02.054Z,51.16
2023-01-02T12:44:22.237Z,50.33
2023-01-02T12:46:43.759Z,50.95
2023-01-02T12:49:00.342Z,50.85
2023-01-02T12:51:18.062Z,50.95
2023-01-02T12:53:31.885Z,51.04
2023-01-02T12:55:48.181Z,51.28
2023-01-02T12:57:56.285Z,51.05
2023-01-02T13:00:25.545Z,50.79
2023-01-02T13:02:43.938Z,50.65
2023-01-02T13:04:51.047Z,50.72
2023-01-02T13:06:59.745Z,50.97
2023-01-02T13:09:06.139Z,51.26
2023-01-02T13:11:12.103Z,50.86
2023-01-02T13:13:16.236Z,51.35
2023-01-02T13:15:23.219Z,51.13
2023-01-02T13:17:37.810Z,50.43
2023-01-02T13:19:49.886Z,50.78
2023-01-02T13:22:02.553Z,51.04
2023-01-02T13:24:05.848Z,51.38
2023-01-02T13:26:10.929Z,50.23
2023-01-02T13:28:14.693Z,50.74
2023-01-02T13:30:44.023Z,50.39
2023-01-02T13:32:48.870Z,49.91
2023-01-02T13:34:53.561Z,50.72
2023-01-02T13:37:04.686Z,50.42
2023-01-02T13:39:19.466Z,50.95
2023-01-02T13:41:23.004Z,51.11
2023-01-02T13:43:30.748Z,51.29
2023-01-02T13:45:38.266Z,51.19
2023-01-02T13:47:51.577Z,51.68
2023-01-02T13:49:59.461Z,51.40
2023-01-02T13:52:03.515Z,51.11
2023-01-02T13:54:15.411Z,51.41
2023-01-02T13:56:20.786Z,51.28
2023-01-02T13:58:42.089Z,51.89
2023-01-02T14:00:51.643Z,52.17
2023-01-02T14:03:19.060Z,51.71
2023-01-02T14:05:59.870Z,51.75
2023-01-02T14:08:25.851Z,51.56
2023-01-02T14:10:35.752Z,52.27
2023-01-02T14:12:43.373Z,52.38
2023-01-02T14:14:51.437Z,52.20
2023-01-02T14:17:06.363Z,51.94
2023-01-02T14:19:25.110Z,51.96
2023-01-02T14:21:34.364Z,52.26
2023-01-02T14:24:16.338Z,52.27
2023-01-02T14:26:06.261Z,52.40
2023-01-02T14:28:08.946Z,52.73
2023-01-02T14:30:15.179Z,52.25
2023-01-02T14:32:22.576Z,52.48
2023-01-02T14:34:27.113Z,52.64
2023-01-02T14:36:41.328Z,52.83
2023-01-02T14:38:55.132Z,52.78
2023-01-02T14:41:18.438Z,52.79
2023-01-02T14:43:31.776Z,52.98
2023-01-02T14:45:35.733Z,53.17
2023-01-02T14:47:39.999Z,53.50
2023-01-02T14:49:44.563Z,53.78
2023-01-02T14:51:55.958Z,53.99
2023-01-02T14:54:02.453Z,54.27
2023-01-02T14:56:06.880Z,54.32
2023-01-02T14:58:18.051Z,54.50
2023-01-02T15:00:29.402Z,55.19
2023-01-02T15:02:42.276Z,54.91
2023-01-02T15:04:50.107Z,55.10
2023-01-02T15:07:07.686Z,55.31
2023-01-02T15:09:18.733Z,55.40
2023-01-02T15:11:40.925Z,55.82
2023-01-02T15:14:04.708Z,55.83
2023-01-02T15:16:11.364Z,56.33
2023-01-02T15:18:21.303Z,56.72
2023-01-02T15:20:26.516Z,57.60
2023-01-02T15:22:31.448Z,57.55
2023-01-02T15:24:35.539Z,58.05
2023-01-02T15:26:40.036Z,58.35
2023-01-02T15:28:42.862Z,58.89
2023-01-02T15:30:47.012Z,59.09
2023-01-02T15:32:49.929Z,59.66
2023-01-02T15:34:53.126Z,59.88
2023-01-02T15:36:57.500Z,60.66
2023-01-02T15:39:09.909Z,61.23
2023-01-02T15:41:19.252Z,61.43
2023-01-02T15:43:39.541Z,61.86
2023-01-02T15:45:45.898Z,62.53
2023-01-02T15:47:50.386Z,63.06
2023-01-02T15:49:53.228Z,63.58
2023-01-02T15:51:57.434Z,64.05
2023-01-02T15:54:03.376Z,64.65
2023-01-02T15:56:07.466Z,64.93
2023-01-02T15:58:24.732Z,65.29
2023-01-02T16:00:36.493Z,65.71
2023-01-02T16:02:43.879Z,66.07
2023-01-02T16:04:46.811Z,66.41
2023-01-02T16:06:49.558Z,66.72
2023-01-02T16:08:54.926Z,67.12
2023-01-02T16:11:02.025Z,66.99
2023-01-02T16:13:28.810Z,67.93
2023-01-02T16:15:36.581Z,68.55
2023-01-02T16:17:40.936Z,69.06
2023-01-02T16:19:57.982Z,69.66
2023-01-02T16:22:09.084Z,70.70
2023-01-02T16:24:12.989Z,71.58
2023-01-02T16:26:16.013Z,72.30
2023-01-02T16:28:35.544Z,73.15
2023-01-02T16:30:43.278Z,74.19
2023-01-02T16:32:48.820Z,74.48
2023-01-02T16:35:00.828Z,74.90
2023-01-02T16:37:11.542Z,75.45
2023-01-02T16:39:43.090Z,76.44
2023-01-02T16:42:12.058Z,77.49
2023-01-02T16:44:16.899Z,78.23
2023-01-02T16:46:19.614Z,79.16
2023-01-02T16:48:25.301Z,79.23
2023-01-02T16:50:28.645Z,79.60
2023-01-02T16:52:31.541Z,80.42
2023-01-02T16:54:34.196Z,80.87
2023-01-02T16:56:38.153Z,81.15
2023-01-02T16:58:40.804Z,81.69
2023-01-02T17:00:43.959Z,82.73
2023-01-02T17:02:47.542Z,83.64
2023-01-02T17:04:50.305Z,84.05
2023-01-02T17:06:55.036Z,84.25
2023-01-02T17:08:57.704Z,85.32
2023-01-02T17:11:00.706Z,85.77
2023-01-02T17:13:05.409Z,86.35
2023-01-02T17:15:09.481Z,86.66
2023-01-02T17:17:12.081Z,87.05
2023-01-02T17:19:14.656Z,87.40
2023-01-02T17:21:17.257Z,88.25
2023-01-02T17:23:20.226Z,88.76
2023-01-02T17:25:23.342Z,89.33
2023-01-02T17:27:26.000Z,89.85
2023-01-02T17:29:31.482Z,89.88
2023-01-02T17:31:34.118Z,90.30
2023-01-02T17:33:36.781Z,90.88
2023-01-02T17:35:39.628Z,90.86
2023-01-02T17:37:42.754Z,91.15
2023-01-02T17:39:45.919Z,91.24
2023-01-02T17:41:49.379Z,91.47
2023-01-02T17:44:01.994Z,91.52
2023-01-02T17:46:38.820Z,91.73
2023-01-02T17:48:31.467Z,91.72
2023-01-02T17:50:34.129Z,92.10
2023-01-02T17:52:38.064Z,92.61
2023-01-02T17:54:40.880Z,92.53
2023-01-02T17:56:43.479Z,92.96
2023-01-02T17:58:46.644Z,93.51
2023-01-02T18:00:49.614Z,92.97
2023-01-02T18:02:54.197Z,93.88
2023-01-02T18:04:57.003Z,94.28
2023-01-02T18:07:01.348Z,94.78
2023-01-02T18:09:04.785Z,94.72
2023-01-02T18:11:08.720Z,94.85
2023-01-02T18:13:12.255Z,95.13
2023-01-02T18:15:16.597Z,95.22
2023-01-02T18:17:30.078Z,95.94
2023-01-02T18:19:37.638Z,96.09
2023-01-02T18:21:40.341Z,96.74
2023-01-02T18:23:43.550Z,96.88
2023-01-02T18:25:46.218Z,97.09
2023-01-02T18:27:49.657Z,97.35
2023-01-02T18:30:00.762Z,97.77
2023-01-02T18:32:09.364Z,98.01
2023-01-02T18:34:46.600Z,98.41
2023-01-02T18:36:42.660Z,99.21
2023-01-02T18:38:45.429Z,100.00
2023-01-02T18:40:48.084Z,100.00
2023-01-02T18:42:55.132Z,100.00
2023-01-02T18:45:00.817Z,100.00
2023-01-02T18:47:09.995Z,100.00
2023-01-02T18:49:18.733Z,100.00
2023-01-02T18:51:24.077Z,98.47
2023-01-02T18:53:31.458Z,95.32
2023-01-02T18:55:40.335Z,94.29
2023-01-02T18:57:47.431Z,92.26
2023-01-02T18:59:51.243Z,92.75
2023-01-02T19:01:57.862Z,92.58
2023-01-02T19:04:22.442Z,92.07
2023-01-02T19:06:29.559Z,92.34
2023-01-02T19:08:37.312Z,93.26
2023-01-02T19:10:42.154Z,92.85
2023-01-02T19:13:07.778Z,90.92
2023-01-02T19:15:33.262Z,91.22
2023-01-02T19:17:35.959Z,91.40
2023-01-02T19:19:40.778Z,91.59
2023-01-02T19:21:43.959Z,91.28
2023-01-02T19:23:52.568Z,91.48
2023-01-02T19:25:56.397Z,91.25
2023-01-02T19:27:59.546Z,91.78
2023-01-02T19:30:02.171Z,91.38
2023-01-02T19:32:24.044Z,91.85
2023-01-02T19:34:37.883Z,92.36
2023-01-02T19:36:40.970Z,92.51
2023-01-02T19:38:44.191Z,92.65
2023-01-02T19:40:48.149Z,92.76
2023-01-02T19:42:52.391Z,93.15
2023-01-02T19:44:56.781Z,93.28
2023-01-02T19:46:59.403Z,93.34
2023-01-02T19:49:02.113Z,94.20
2023-01-02T19:51:05.020Z,94.19
2023-01-02T19:53:07.643Z,93.30
2023-01-02T19:55:11.620Z,93.18
2023-01-02T19:57:17.655Z,93.68
2023-01-02T19:59:20.456Z,94.89
2023-01-02T20:01:23.279Z,94.66
2023-01-02T20:03:26.150Z,93.00
2023-01-02T20:05:29.361Z,93.34
2023-01-02T20:07:32.542Z,94.15
2023-01-02T20:09:35.218Z,94.25
2023-01-02T20:11:55.642Z,94.52
2023-01-02T20:13:59.706Z,94.26
2023-01-02T20:16:02.378Z,92.42
2023-01-02T20:18:08.818Z,91.39
2023-01-02T20:20:13.202Z,90.59
2023-01-02T20:22:15.976Z,89.98
2023-01-02T20:24:18.595Z,89.72
2023-01-02T20:26:21.286Z,89.25
2023-01-02T20:28:23.941Z,89.17
2023-01-02T20:30:27.960Z,89.44
2023-01-02T20:32:30.669Z,89.33
2023-01-02T20:34:33.342Z,90.65
2023-01-02T20:36:35.993Z,90.10
2023-01-02T20:38:38.716Z,91.94
2023-01-02T20:40:41.340Z,91.37
2023-01-02T20:42:43.905Z,91.07
2023-01-02T20:44:46.958Z,91.84
2023-01-02T20:46:51.048Z,91.82
2023-01-02T20:48:53.714Z,92.59
2023-01-02T20:50:56.510Z,93.11
2023-01-02T20:52:59.137Z,92.46
2023-01-02T20:55:01.773Z,93.11
2023-01-02T20:57:04.441Z,93.08
2023-01-02T20:59:07.076Z,94.42
2023-01-02T21:01:09.655Z,94.75
2023-01-02T21:03:13.769Z,94.79
2023-01-02T21:05:16.636Z,93.78
2023-01-02T21:07:20.112Z,94.83
2023-01-02T21:09:22.782Z,95.05
2023-01-02T21:11:25.383Z,95.06
2023-01-02T21:13:28.021Z,96.10
2023-01-02T21:15:46.292Z,95.32
2023-01-02T21:17:48.992Z,95.60
2023-01-02T21:19:53.009Z,95.71
2023-01-02T21:21:55.625Z,95.84
2023-01-02T21:23:58.233Z,95.99
2023-01-02T21:26:00.933Z,96.25
2023-01-02T21:28:03.885Z,95.04
2023-01-02T21:30:07.659Z,94.53
2023-01-02T21:32:10.291Z,95.67
2023-01-02T21:34:13.642Z,96.66
2023-01-02T21:36:17.579Z,96.05
2023-01-02T21:38:21.684Z,96.09
2023-01-02T21:40:24.364Z,96.26
2023-01-02T21:42:25.995Z,95.83
2023-01-02T21:44:28.612Z,95.88
2023-01-02T21:46:31.394Z,96.00
2023-01-02T21:48:34.709Z,95.76
2023-01-02T21:50:37.677Z,94.87
2023-01-02T21:52:41.831Z,95.31
2023-01-02T21:54:44.558Z,94.29
2023-01-02T21:56:47.231Z,93.88
2023-01-02T21:58:49.853Z,94.48
2023-01-02T22:00:52.570Z,94.75
2023-01-02T22:02:56.044Z,94.76
2023-01-02T22:04:58.707Z,94.36
2023-01-02T22:07:30.839Z,94.02
2023-01-02T22:09:25.410Z,94.76
2023-01-02T22:11:46.196Z,95.54
2023-01-02T22:13:48.817Z,94.20
2023-01-02T22:15:51.486Z,93.93
2023-01-02T22:17:54.151Z,94.70
2023-01-02T22:19:56.954Z,94.65
2023-01-02T22:21:59.884Z,94.61
2023-01-02T22:24:02.602Z,94.34
2023-01-02T22:26:06.842Z,94.34
2023-01-02T22:28:09.523Z,94.75
2023-01-02T22:30:25.737Z,95.19
2023-01-02T22:32:35.034Z,94.88
2023-01-02T22:34:43.202Z,94.49
2023-01-02T22:36:46.313Z,94.30
2023-01-02T22:39:17.543Z,93.87
2023-01-02T22:41:13.307Z,93.86
2023-01-02T22:43:20.949Z,92.62
2023-01-02T22:45:28.968Z,92.51
2023-01-02T22:47:34.139Z,92.24
2023-01-02T22:49:39.489Z,91.34
2023-01-02T22:52:05.924Z,91.58
2023-01-02T22:54:05.020Z,91.65
2023-01-02T22:56:14.383Z,91.10
2023-01-02T22:58:17.602Z,91.46
2023-01-02T23:00:23.197Z,91.51
2023-01-02T23:02:26.097Z,91.83
2023-01-02T23:04:28.759Z,91.47
2023-01-02T23:06:31.530Z,92.04
2023-01-02T23:08:34.324Z,92.00
2023-01-02T23:10:36.987Z,91.28
2023-01-02T23:12:41.101Z,90.77
2023-01-02T23:14:43.934Z,91.10
2023-01-02T23:17:04.237Z,91.74
2023-01-02T23:19:14.985Z,92.59
2023-01-02T23:21:17.715Z,92.79
2023-01-02T23:23:20.292Z,92.16
2023-01-02T23:25:22.974Z,92.92
2023-01-02T23:27:25.675Z,92.77
2023-01-02T23:29:30.079Z,92.57
2023-01-02T23:31:32.770Z,92.20
2023-01-02T23:33:35.542Z,91.86
2023-01-02T23:35:38.255Z,91.44
2023-01-02T23:37:40.894Z,91.81
2023-01-02T23:39:43.564Z,91.01
2023-01-02T23:41:47.388Z,90.77
2023-01-02T23:43:51.376Z,92.32
2023-01-02T23:45:55.453Z,92.84
2023-01-02T23:47:58.188Z,93.04
2023-01-02T23:50:00.883Z,93.94
2023-01-02T23:52:04.773Z,93.04
2023-01-02T23:54:08.593Z,92.87
2023-01-02T23:56:18.535Z,92.48
2023-01-02T23:58:21.690Z,93.01
